sensor_id;sensor_type;location;lat;lon;timestamp;P1;durP1;ratioP1;P2;durP2;ratioP2
21034;SDS011;10676;50.848;3.272;2022-12-18T00:00:40;90.07;;;37.73;;
21034;SDS011;10676;50.848;3.272;2022-12-18T00:03:06;97.37;;;38.17;;
21034;SDS011;10676;50.848;3.272;2022-12-18T00:05:32;94.83;;;40.77;;
21034;SDS011;10676;50.848;3.272;2022-12-18T00:07:58;102.53;;;42.13;;
21034;SDS011;10676;50.848;3.272;2022-12-18T00:10:24;97.07;;;41.03;;
21034;SDS011;10676;50.848;3.272;2022-12-18T00:12:49;105.40;;;40.20;;
21034;SDS011;10676;50.848;3.272;2022-12-18T00:15:15;101.00;;;42.27;;
21034;SDS011;10676;50.848;3.272;2022-12-18T00:17:41;100.17;;;39.07;;
21034;SDS011;10676;50.848;3.272;2022-12-18T00:20:06;105.20;;;40.90;;
21034;SDS011;10676;50.848;3.272;2022-12-18T00:22:33;104.20;;;40.70;;
21034;SDS011;10676;50.848;3.272;2022-12-18T00:24:58;97.53;;;38.23;;
21034;SDS011;10676;50.848;3.272;2022-12-18T00:27:24;99.87;;;39.40;;
21034;SDS011;10676;50.848;3.272;2022-12-18T00:29:50;93.07;;;37.10;;
21034;SDS011;10676;50.848;3.272;2022-12-18T00:32:15;93.20;;;38.33;;
21034;SDS011;10676;50.848;3.272;2022-12-18T00:34:41;111.10;;;42.03;;
21034;SDS011;10676;50.848;3.272;2022-12-18T00:37:06;98.93;;;38.33;;
21034;SDS011;10676;50.848;3.272;2022-12-18T00:39:32;91.30;;;37.27;;
21034;SDS011;10676;50.848;3.272;2022-12-18T00:41:58;84.93;;;35.97;;
21034;SDS011;10676;50.848;3.272;2022-12-18T00:44:42;98.17;;;38.17;;
21034;SDS011;10676;50.848;3.272;2022-12-18T00:47:07;88.30;;;36.80;;
21034;SDS011;10676;50.848;3.272;2022-12-18T00:49:33;83.83;;;36.27;;
21034;SDS011;10676;50.848;3.272;2022-12-18T00:51:59;88.93;;;38.30;;
21034;SDS011;10676;50.848;3.272;2022-12-18T00:54:24;87.13;;;37.50;;
21034;SDS011;10676;50.848;3.272;2022-12-18T00:56:50;97.37;;;38.60;;
21034;SDS011;10676;50.848;3.272;2022-12-18T00:59:16;95.87;;;37.27;;
21034;SDS011;10676;50.848;3.272;2022-12-18T01:01:43;86.90;;;37.30;;
21034;SDS011;10676;50.848;3.272;2022-12-18T01:04:09;83.33;;;36.10;;
21034;SDS011;10676;50.848;3.272;2022-12-18T01:06:35;92.73;;;36.47;;
21034;SDS011;10676;50.848;3.272;2022-12-18T01:09:01;88.00;;;36.27;;
21034;SDS011;10676;50.848;3.272;2022-12-18T01:11:27;87.27;;;35.40;;
21034;SDS011;10676;50.848;3.272;2022-12-18T01:13:53;87.23;;;36.03;;
21034;SDS011;10676;50.848;3.272;2022-12-18T01:16:19;90.97;;;36.43;;
21034;SDS011;10676;50.848;3.272;2022-12-18T01:18:45;78.63;;;34.83;;
21034;SDS011;10676;50.848;3.272;2022-12-18T01:21:14;81.50;;;38.43;;
21034;SDS011;10676;50.848;3.272;2022-12-18T01:23:41;92.60;;;37.60;;
21034;SDS011;10676;50.848;3.272;2022-12-18T01:26:07;88.43;;;38.27;;
21034;SDS011;10676;50.848;3.272;2022-12-18T01:28:35;95.13;;;41.43;;
21034;SDS011;10676;50.848;3.272;2022-12-18T01:31:12;88.53;;;41.57;;
21034;SDS011;10676;50.848;3.272;2022-12-18T01:33:43;78.50;;;38.63;;
21034;SDS011;10676;50.848;3.272;2022-12-18T01:36:16;93.90;;;40.40;;
21034;SDS011;10676;50.848;3.272;2022-12-18T01:38:43;82.93;;;40.37;;
21034;SDS011;10676;50.848;3.272;2022-12-18T01:41:10;87.50;;;41.07;;
21034;SDS011;10676;50.848;3.272;2022-12-18T01:43:42;84.87;;;40.50;;
21034;SDS011;10676;50.848;3.272;2022-12-18T01:46:11;81.67;;;42.60;;
21034;SDS011;10676;50.848;3.272;2022-12-18T01:48:37;86.40;;;42.83;;
21034;SDS011;10676;50.848;3.272;2022-12-18T01:51:04;81.93;;;40.10;;
21034;SDS011;10676;50.848;3.272;2022-12-18T01:53:32;84.77;;;39.90;;
21034;SDS011;10676;50.848;3.272;2022-12-18T01:55:58;75.57;;;36.97;;
21034;SDS011;10676;50.848;3.272;2022-12-18T01:58:30;79.60;;;37.17;;
21034;SDS011;10676;50.848;3.272;2022-12-18T02:01:13;85.13;;;36.00;;
21034;SDS011;10676;50.848;3.272;2022-12-18T02:03:41;79.53;;;37.07;;
21034;SDS011;10676;50.848;3.272;2022-12-18T02:06:10;79.13;;;36.03;;
21034;SDS011;10676;50.848;3.272;2022-12-18T02:11:43;73.37;;;34.40;;
21034;SDS011;10676;50.848;3.272;2022-12-18T02:14:24;81.87;;;34.00;;
21034;SDS011;10676;50.848;3.272;2022-12-18T02:28:03;79.80;;;35.80;;
21034;SDS011;10676;50.848;3.272;2022-12-18T02:30:33;81.60;;;35.73;;
21034;SDS011;10676;50.848;3.272;2022-12-18T02:33:01;82.27;;;35.77;;
21034;SDS011;10676;50.848;3.272;2022-12-18T02:35:29;74.57;;;35.07;;
21034;SDS011;10676;50.848;3.272;2022-12-18T02:37:56;74.83;;;35.50;;
21034;SDS011;10676;50.848;3.272;2022-12-18T02:40:23;69.90;;;33.50;;
21034;SDS011;10676;50.848;3.272;2022-12-18T02:42:51;73.17;;;34.83;;
21034;SDS011;10676;50.848;3.272;2022-12-18T02:45:16;71.70;;;33.80;;
21034;SDS011;10676;50.848;3.272;2022-12-18T02:47:43;66.53;;;32.87;;
21034;SDS011;10676;50.848;3.272;2022-12-18T02:50:22;78.90;;;34.13;;
21034;SDS011;10676;50.848;3.272;2022-12-18T02:53:45;73.70;;;34.77;;
21034;SDS011;10676;50.848;3.272;2022-12-18T02:56:13;69.10;;;34.43;;
21034;SDS011;10676;50.848;3.272;2022-12-18T03:03:56;76.33;;;34.40;;
21034;SDS011;10676;50.848;3.272;2022-12-18T03:06:30;73.93;;;33.80;;
21034;SDS011;10676;50.848;3.272;2022-12-18T03:09:02;63.23;;;31.37;;
21034;SDS011;10676;50.848;3.272;2022-12-18T03:11:33;66.73;;;34.07;;
21034;SDS011;10676;50.848;3.272;2022-12-18T03:14:22;68.43;;;33.13;;
21034;SDS011;10676;50.848;3.272;2022-12-18T03:16:51;67.23;;;33.83;;
21034;SDS011;10676;50.848;3.272;2022-12-18T03:19:20;74.37;;;34.63;;
21034;SDS011;10676;50.848;3.272;2022-12-18T03:21:50;72.77;;;32.43;;
21034;SDS011;10676;50.848;3.272;2022-12-18T03:24:18;68.70;;;33.03;;
21034;SDS011;10676;50.848;3.272;2022-12-18T03:26:47;67.50;;;32.57;;
21034;SDS011;10676;50.848;3.272;2022-12-18T03:29:27;61.37;;;32.63;;
21034;SDS011;10676;50.848;3.272;2022-12-18T03:32:04;65.73;;;32.80;;
21034;SDS011;10676;50.848;3.272;2022-12-18T03:34:33;67.40;;;31.33;;
21034;SDS011;10676;50.848;3.272;2022-12-18T03:37:03;65.33;;;32.87;;
21034;SDS011;10676;50.848;3.272;2022-12-18T03:39:30;69.40;;;34.80;;
21034;SDS011;10676;50.848;3.272;2022-12-18T03:42:10;63.40;;;31.83;;
21034;SDS011;10676;50.848;3.272;2022-12-18T03:44:44;63.13;;;32.00;;
21034;SDS011;10676;50.848;3.272;2022-12-18T03:47:28;62.87;;;33.00;;
21034;SDS011;10676;50.848;3.272;2022-12-18T03:52:30;60.53;;;31.60;;
21034;SDS011;10676;50.848;3.272;2022-12-18T03:55:01;57.27;;;29.70;;
21034;SDS011;10676;50.848;3.272;2022-12-18T03:57:30;62.47;;;32.40;;
21034;SDS011;10676;50.848;3.272;2022-12-18T03:59:58;54.80;;;30.17;;
21034;SDS011;10676;50.848;3.272;2022-12-18T04:02:28;59.30;;;32.23;;
21034;SDS011;10676;50.848;3.272;2022-12-18T04:04:57;64.27;;;31.60;;
21034;SDS011;10676;50.848;3.272;2022-12-18T04:07:26;58.80;;;31.63;;
21034;SDS011;10676;50.848;3.272;2022-12-18T04:09:53;65.37;;;33.97;;
21034;SDS011;10676;50.848;3.272;2022-12-18T04:12:24;63.30;;;34.73;;
21034;SDS011;10676;50.848;3.272;2022-12-18T04:14:51;52.40;;;34.37;;
21034;SDS011;10676;50.848;3.272;2022-12-18T04:17:17;52.00;;;30.80;;
21034;SDS011;10676;50.848;3.272;2022-12-18T04:19:42;53.70;;;30.47;;
21034;SDS011;10676;50.848;3.272;2022-12-18T04:22:09;53.27;;;29.27;;
21034;SDS011;10676;50.848;3.272;2022-12-18T04:24:35;51.17;;;28.70;;
21034;SDS011;10676;50.848;3.272;2022-12-18T04:27:01;52.67;;;28.20;;
21034;SDS011;10676;50.848;3.272;2022-12-18T04:29:26;49.50;;;29.13;;
21034;SDS011;10676;50.848;3.272;2022-12-18T04:31:52;57.00;;;28.70;;
21034;SDS011;10676;50.848;3.272;2022-12-18T04:34:18;45.53;;;27.87;;
21034;SDS011;10676;50.848;3.272;2022-12-18T04:36:43;56.80;;;27.93;;
21034;SDS011;10676;50.848;3.272;2022-12-18T04:39:09;52.50;;;28.80;;
21034;SDS011;10676;50.848;3.272;2022-12-18T04:41:34;52.30;;;29.43;;
21034;SDS011;10676;50.848;3.272;2022-12-18T04:44:00;49.87;;;28.70;;
21034;SDS011;10676;50.848;3.272;2022-12-18T04:46:26;49.07;;;30.17;;
21034;SDS011;10676;50.848;3.272;2022-12-18T04:48:52;50.87;;;29.90;;
21034;SDS011;10676;50.848;3.272;2022-12-18T04:51:17;51.30;;;30.93;;
21034;SDS011;10676;50.848;3.272;2022-12-18T04:53:43;47.37;;;31.40;;
21034;SDS011;10676;50.848;3.272;2022-12-18T04:56:10;53.77;;;32.43;;
21034;SDS011;10676;50.848;3.272;2022-12-18T04:58:38;60.47;;;35.00;;
21034;SDS011;10676;50.848;3.272;2022-12-18T05:01:05;48.73;;;31.33;;
21034;SDS011;10676;50.848;3.272;2022-12-18T05:03:32;56.50;;;31.40;;
21034;SDS011;10676;50.848;3.272;2022-12-18T05:05:59;50.60;;;30.97;;
21034;SDS011;10676;50.848;3.272;2022-12-18T05:08:25;55.50;;;33.17;;
21034;SDS011;10676;50.848;3.272;2022-12-18T05:10:57;53.07;;;29.70;;
21034;SDS011;10676;50.848;3.272;2022-12-18T05:13:28;52.73;;;30.67;;
21034;SDS011;10676;50.848;3.272;2022-12-18T05:15:54;50.37;;;30.97;;
21034;SDS011;10676;50.848;3.272;2022-12-18T05:18:21;55.50;;;31.80;;
21034;SDS011;10676;50.848;3.272;2022-12-18T05:20:47;53.33;;;31.57;;
21034;SDS011;10676;50.848;3.272;2022-12-18T05:23:14;56.30;;;31.73;;
21034;SDS011;10676;50.848;3.272;2022-12-18T05:25:40;57.30;;;31.47;;
21034;SDS011;10676;50.848;3.272;2022-12-18T05:28:06;57.40;;;33.50;;
21034;SDS011;10676;50.848;3.272;2022-12-18T05:30:31;59.10;;;34.17;;
21034;SDS011;10676;50.848;3.272;2022-12-18T05:32:57;56.70;;;34.07;;
21034;SDS011;10676;50.848;3.272;2022-12-18T05:35:26;61.00;;;34.90;;
21034;SDS011;10676;50.848;3.272;2022-12-18T05:37:51;55.10;;;34.07;;
21034;SDS011;10676;50.848;3.272;2022-12-18T05:40:17;52.27;;;34.40;;
21034;SDS011;10676;50.848;3.272;2022-12-18T05:42:46;51.73;;;32.07;;
21034;SDS011;10676;50.848;3.272;2022-12-18T05:45:11;49.63;;;28.23;;
21034;SDS011;10676;50.848;3.272;2022-12-18T05:47:37;42.93;;;24.80;;
21034;SDS011;10676;50.848;3.272;2022-12-18T05:50:03;42.13;;;26.57;;
21034;SDS011;10676;50.848;3.272;2022-12-18T05:52:29;45.77;;;25.93;;
21034;SDS011;10676;50.848;3.272;2022-12-18T05:54:55;37.47;;;23.90;;
21034;SDS011;10676;50.848;3.272;2022-12-18T05:57:21;40.43;;;23.73;;
21034;SDS011;10676;50.848;3.272;2022-12-18T05:59:46;47.87;;;25.83;;
21034;SDS011;10676;50.848;3.272;2022-12-18T06:02:12;43.90;;;24.37;;
21034;SDS011;10676;50.848;3.272;2022-12-18T06:04:37;38.93;;;24.37;;
21034;SDS011;10676;50.848;3.272;2022-12-18T06:07:03;38.20;;;23.17;;
21034;SDS011;10676;50.848;3.272;2022-12-18T06:09:29;44.13;;;23.97;;
21034;SDS011;10676;50.848;3.272;2022-12-18T06:11:54;43.97;;;23.70;;
21034;SDS011;10676;50.848;3.272;2022-12-18T06:14:20;34.90;;;23.57;;
21034;SDS011;10676;50.848;3.272;2022-12-18T06:16:45;41.63;;;23.17;;
21034;SDS011;10676;50.848;3.272;2022-12-18T06:19:14;39.83;;;22.53;;
21034;SDS011;10676;50.848;3.272;2022-12-18T06:21:40;35.83;;;23.83;;
21034;SDS011;10676;50.848;3.272;2022-12-18T06:24:06;37.67;;;23.73;;
21034;SDS011;10676;50.848;3.272;2022-12-18T06:26:32;36.27;;;23.67;;
21034;SDS011;10676;50.848;3.272;2022-12-18T06:28:57;36.27;;;22.57;;
21034;SDS011;10676;50.848;3.272;2022-12-18T06:31:23;32.60;;;21.23;;
21034;SDS011;10676;50.848;3.272;2022-12-18T06:33:49;36.93;;;22.47;;
21034;SDS011;10676;50.848;3.272;2022-12-18T06:36:15;36.87;;;22.53;;
21034;SDS011;10676;50.848;3.272;2022-12-18T06:38:42;36.00;;;21.83;;
21034;SDS011;10676;50.848;3.272;2022-12-18T06:41:12;35.27;;;22.20;;
21034;SDS011;10676;50.848;3.272;2022-12-18T06:43:40;36.93;;;22.63;;
21034;SDS011;10676;50.848;3.272;2022-12-18T06:46:06;32.13;;;21.77;;
21034;SDS011;10676;50.848;3.272;2022-12-18T06:48:32;37.17;;;20.63;;
21034;SDS011;10676;50.848;3.272;2022-12-18T06:50:57;37.10;;;22.27;;
21034;SDS011;10676;50.848;3.272;2022-12-18T06:53:24;31.90;;;21.23;;
21034;SDS011;10676;50.848;3.272;2022-12-18T06:55:49;24.47;;;20.67;;
21034;SDS011;10676;50.848;3.272;2022-12-18T06:58:16;31.43;;;20.77;;
21034;SDS011;10676;50.848;3.272;2022-12-18T07:00:45;26.90;;;18.00;;
21034;SDS011;10676;50.848;3.272;2022-12-18T07:03:11;32.13;;;19.53;;
21034;SDS011;10676;50.848;3.272;2022-12-18T07:05:40;30.77;;;19.60;;
21034;SDS011;10676;50.848;3.272;2022-12-18T07:08:06;29.27;;;20.77;;
21034;SDS011;10676;50.848;3.272;2022-12-18T07:10:33;30.50;;;19.40;;
21034;SDS011;10676;50.848;3.272;2022-12-18T07:12:58;28.87;;;18.77;;
21034;SDS011;10676;50.848;3.272;2022-12-18T07:15:24;29.17;;;20.43;;
21034;SDS011;10676;50.848;3.272;2022-12-18T07:17:50;27.67;;;20.03;;
21034;SDS011;10676;50.848;3.272;2022-12-18T07:20:18;24.50;;;19.37;;
21034;SDS011;10676;50.848;3.272;2022-12-18T07:22:44;30.23;;;20.00;;
21034;SDS011;10676;50.848;3.272;2022-12-18T07:25:10;27.87;;;19.53;;
21034;SDS011;10676;50.848;3.272;2022-12-18T07:27:35;28.23;;;20.10;;
21034;SDS011;10676;50.848;3.272;2022-12-18T07:30:01;28.60;;;22.20;;
21034;SDS011;10676;50.848;3.272;2022-12-18T07:32:27;29.23;;;22.83;;
21034;SDS011;10676;50.848;3.272;2022-12-18T07:34:52;28.73;;;21.67;;
21034;SDS011;10676;50.848;3.272;2022-12-18T07:37:18;27.87;;;21.43;;
21034;SDS011;10676;50.848;3.272;2022-12-18T07:39:44;28.87;;;22.43;;
21034;SDS011;10676;50.848;3.272;2022-12-18T07:42:09;31.57;;;22.80;;
21034;SDS011;10676;50.848;3.272;2022-12-18T07:44:53;28.20;;;21.80;;
21034;SDS011;10676;50.848;3.272;2022-12-18T07:47:19;28.43;;;19.83;;
21034;SDS011;10676;50.848;3.272;2022-12-18T07:49:44;28.83;;;21.27;;
21034;SDS011;10676;50.848;3.272;2022-12-18T07:52:10;25.10;;;19.60;;
21034;SDS011;10676;50.848;3.272;2022-12-18T07:54:37;29.63;;;20.07;;
21034;SDS011;10676;50.848;3.272;2022-12-18T07:57:03;31.00;;;21.60;;
21034;SDS011;10676;50.848;3.272;2022-12-18T07:59:29;27.60;;;19.90;;
21034;SDS011;10676;50.848;3.272;2022-12-18T08:01:54;30.20;;;20.43;;
21034;SDS011;10676;50.848;3.272;2022-12-18T08:04:20;26.50;;;20.00;;
21034;SDS011;10676;50.848;3.272;2022-12-18T08:06:46;28.93;;;19.83;;
21034;SDS011;10676;50.848;3.272;2022-12-18T08:09:11;27.60;;;19.03;;
21034;SDS011;10676;50.848;3.272;2022-12-18T08:11:37;34.23;;;20.27;;
21034;SDS011;10676;50.848;3.272;2022-12-18T08:14:03;29.80;;;19.93;;
21034;SDS011;10676;50.848;3.272;2022-12-18T08:16:29;31.80;;;20.17;;
21034;SDS011;10676;50.848;3.272;2022-12-18T08:18:55;34.80;;;21.27;;
21034;SDS011;10676;50.848;3.272;2022-12-18T08:21:23;30.20;;;19.63;;
21034;SDS011;10676;50.848;3.272;2022-12-18T08:23:52;25.30;;;19.43;;
21034;SDS011;10676;50.848;3.272;2022-12-18T08:26:19;31.23;;;21.07;;
21034;SDS011;10676;50.848;3.272;2022-12-18T08:28:45;29.47;;;19.80;;
21034;SDS011;10676;50.848;3.272;2022-12-18T08:31:10;29.50;;;19.70;;
21034;SDS011;10676;50.848;3.272;2022-12-18T08:33:37;28.73;;;19.93;;
21034;SDS011;10676;50.848;3.272;2022-12-18T08:36:04;28.80;;;20.50;;
21034;SDS011;10676;50.848;3.272;2022-12-18T08:38:31;34.33;;;21.77;;
21034;SDS011;10676;50.848;3.272;2022-12-18T08:41:07;31.57;;;21.80;;
21034;SDS011;10676;50.848;3.272;2022-12-18T08:43:35;35.90;;;23.23;;
21034;SDS011;10676;50.848;3.272;2022-12-18T08:46:20;31.03;;;22.33;;
21034;SDS011;10676;50.848;3.272;2022-12-18T08:48:47;32.73;;;22.67;;
21034;SDS011;10676;50.848;3.272;2022-12-18T08:51:18;34.63;;;21.60;;
21034;SDS011;10676;50.848;3.272;2022-12-18T08:53:43;37.40;;;21.70;;
21034;SDS011;10676;50.848;3.272;2022-12-18T08:56:10;32.80;;;21.37;;
21034;SDS011;10676;50.848;3.272;2022-12-18T08:58:36;32.63;;;21.27;;
21034;SDS011;10676;50.848;3.272;2022-12-18T09:01:02;36.10;;;22.67;;
21034;SDS011;10676;50.848;3.272;2022-12-18T09:03:29;35.80;;;21.90;;
21034;SDS011;10676;50.848;3.272;2022-12-18T09:05:55;35.93;;;22.90;;
21034;SDS011;10676;50.848;3.272;2022-12-18T09:08:21;30.47;;;22.37;;
21034;SDS011;10676;50.848;3.272;2022-12-18T09:10:47;39.57;;;23.73;;
21034;SDS011;10676;50.848;3.272;2022-12-18T09:13:15;38.13;;;22.37;;
21034;SDS011;10676;50.848;3.272;2022-12-18T09:15:42;37.37;;;22.60;;
21034;SDS011;10676;50.848;3.272;2022-12-18T09:18:10;35.87;;;23.60;;
21034;SDS011;10676;50.848;3.272;2022-12-18T09:20:36;36.93;;;22.87;;
21034;SDS011;10676;50.848;3.272;2022-12-18T09:23:03;32.80;;;23.00;;
21034;SDS011;10676;50.848;3.272;2022-12-18T09:25:29;37.63;;;23.03;;
21034;SDS011;10676;50.848;3.272;2022-12-18T09:28:00;35.90;;;23.33;;
21034;SDS011;10676;50.848;3.272;2022-12-18T09:30:29;43.53;;;23.90;;
21034;SDS011;10676;50.848;3.272;2022-12-18T09:32:58;34.83;;;23.80;;
21034;SDS011;10676;50.848;3.272;2022-12-18T09:35:24;37.27;;;24.73;;
21034;SDS011;10676;50.848;3.272;2022-12-18T09:37:49;35.90;;;22.60;;
21034;SDS011;10676;50.848;3.272;2022-12-18T09:40:20;44.07;;;29.77;;
21034;SDS011;10676;50.848;3.272;2022-12-18T09:42:50;42.03;;;23.77;;
21034;SDS011;10676;50.848;3.272;2022-12-18T09:45:18;44.30;;;25.43;;
21034;SDS011;10676;50.848;3.272;2022-12-18T09:47:45;42.47;;;25.07;;
21034;SDS011;10676;50.848;3.272;2022-12-18T09:50:32;39.37;;;24.77;;
21034;SDS011;10676;50.848;3.272;2022-12-18T09:53:11;40.30;;;25.27;;
21034;SDS011;10676;50.848;3.272;2022-12-18T09:55:45;39.53;;;25.13;;
21034;SDS011;10676;50.848;3.272;2022-12-18T09:58:19;37.23;;;24.80;;
21034;SDS011;10676;50.848;3.272;2022-12-18T10:01:11;39.87;;;25.10;;
21034;SDS011;10676;50.848;3.272;2022-12-18T10:03:48;38.43;;;25.13;;
21034;SDS011;10676;50.848;3.272;2022-12-18T10:06:36;41.53;;;25.13;;
21034;SDS011;10676;50.848;3.272;2022-12-18T10:20:05;38.60;;;25.30;;
21034;SDS011;10676;50.848;3.272;2022-12-18T10:27:30;46.47;;;26.90;;
21034;SDS011;10676;50.848;3.272;2022-12-18T10:29:56;45.03;;;26.83;;
21034;SDS011;10676;50.848;3.272;2022-12-18T10:32:24;47.27;;;26.67;;
21034;SDS011;10676;50.848;3.272;2022-12-18T10:34:53;50.30;;;28.20;;
21034;SDS011;10676;50.848;3.272;2022-12-18T10:37:21;53.93;;;27.23;;
21034;SDS011;10676;50.848;3.272;2022-12-18T10:40:06;49.17;;;28.30;;
21034;SDS011;10676;50.848;3.272;2022-12-18T10:42:32;49.77;;;29.33;;
21034;SDS011;10676;50.848;3.272;2022-12-18T10:45:02;52.10;;;28.60;;
21034;SDS011;10676;50.848;3.272;2022-12-18T10:47:31;51.03;;;29.03;;
21034;SDS011;10676;50.848;3.272;2022-12-18T10:49:59;51.07;;;29.97;;
21034;SDS011;10676;50.848;3.272;2022-12-18T10:52:25;51.33;;;30.17;;
21034;SDS011;10676;50.848;3.272;2022-12-18T10:54:53;52.63;;;29.30;;
21034;SDS011;10676;50.848;3.272;2022-12-18T11:00:18;50.93;;;29.10;;
21034;SDS011;10676;50.848;3.272;2022-12-18T11:02:47;55.17;;;30.47;;
21034;SDS011;10676;50.848;3.272;2022-12-18T11:05:29;51.70;;;30.67;;
21034;SDS011;10676;50.848;3.272;2022-12-18T11:07:57;55.57;;;30.33;;
21034;SDS011;10676;50.848;3.272;2022-12-18T11:10:31;48.10;;;29.50;;
21034;SDS011;10676;50.848;3.272;2022-12-18T11:15:47;53.67;;;30.13;;
21034;SDS011;10676;50.848;3.272;2022-12-18T11:20:44;54.33;;;31.57;;
21034;SDS011;10676;50.848;3.272;2022-12-18T11:23:16;58.03;;;31.97;;
21034;SDS011;10676;50.848;3.272;2022-12-18T11:25:59;56.53;;;31.87;;
21034;SDS011;10676;50.848;3.272;2022-12-18T11:31:24;56.60;;;32.67;;
21034;SDS011;10676;50.848;3.272;2022-12-18T11:36:43;62.00;;;32.43;;
21034;SDS011;10676;50.848;3.272;2022-12-18T11:42:04;60.03;;;33.57;;
21034;SDS011;10676;50.848;3.272;2022-12-18T11:50:20;59.23;;;31.43;;
21034;SDS011;10676;50.848;3.272;2022-12-18T11:52:50;57.67;;;31.63;;
21034;SDS011;10676;50.848;3.272;2022-12-18T11:55:20;58.10;;;32.13;;
21034;SDS011;10676;50.848;3.272;2022-12-18T11:57:52;53.83;;;30.20;;
21034;SDS011;10676;50.848;3.272;2022-12-18T12:00:32;64.10;;;32.10;;
21034;SDS011;10676;50.848;3.272;2022-12-18T12:03:12;60.83;;;31.60;;
21034;SDS011;10676;50.848;3.272;2022-12-18T12:25:51;63.07;;;31.43;;
21034;SDS011;10676;50.848;3.272;2022-12-18T12:39:26;59.00;;;31.13;;
21034;SDS011;10676;50.848;3.272;2022-12-18T12:41:56;63.63;;;31.50;;
21034;SDS011;10676;50.848;3.272;2022-12-18T12:44:49;57.97;;;31.80;;
21034;SDS011;10676;50.848;3.272;2022-12-18T12:47:33;59.23;;;31.63;;
21034;SDS011;10676;50.848;3.272;2022-12-18T12:50:05;61.07;;;31.60;;
21034;SDS011;10676;50.848;3.272;2022-12-18T12:52:57;60.97;;;31.23;;
21034;SDS011;10676;50.848;3.272;2022-12-18T12:55:26;61.47;;;31.23;;
21034;SDS011;10676;50.848;3.272;2022-12-18T12:58:06;62.50;;;31.40;;
21034;SDS011;10676;50.848;3.272;2022-12-18T13:01:03;58.30;;;31.87;;
21034;SDS011;10676;50.848;3.272;2022-12-18T13:12:55;60.07;;;31.13;;
21034;SDS011;10676;50.848;3.272;2022-12-18T13:15:23;60.53;;;32.03;;
21034;SDS011;10676;50.848;3.272;2022-12-18T13:25:50;58.83;;;30.03;;
21034;SDS011;10676;50.848;3.272;2022-12-18T13:31:14;59.03;;;31.23;;
21034;SDS011;10676;50.848;3.272;2022-12-18T13:34:17;59.20;;;30.10;;
21034;SDS011;10676;50.848;3.272;2022-12-18T13:36:43;58.07;;;30.20;;
21034;SDS011;10676;50.848;3.272;2022-12-18T13:41:46;58.87;;;30.97;;
21034;SDS011;10676;50.848;3.272;2022-12-18T13:44:32;55.67;;;29.73;;
21034;SDS011;10676;50.848;3.272;2022-12-18T13:47:02;56.33;;;29.87;;
21034;SDS011;10676;50.848;3.272;2022-12-18T13:49:40;58.17;;;31.47;;
21034;SDS011;10676;50.848;3.272;2022-12-18T13:52:15;56.00;;;28.63;;
21034;SDS011;10676;50.848;3.272;2022-12-18T13:54:50;58.33;;;31.33;;
21034;SDS011;10676;50.848;3.272;2022-12-18T13:57:25;59.57;;;31.50;;
21034;SDS011;10676;50.848;3.272;2022-12-18T13:59:57;59.40;;;32.90;;
21034;SDS011;10676;50.848;3.272;2022-12-18T14:02:37;54.87;;;30.63;;
21034;SDS011;10676;50.848;3.272;2022-12-18T14:05:03;54.77;;;30.07;;
21034;SDS011;10676;50.848;3.272;2022-12-18T14:07:29;58.63;;;32.80;;
21034;SDS011;10676;50.848;3.272;2022-12-18T14:09:57;55.13;;;34.53;;
21034;SDS011;10676;50.848;3.272;2022-12-18T14:12:25;54.17;;;33.07;;
21034;SDS011;10676;50.848;3.272;2022-12-18T14:15:19;57.17;;;33.97;;
21034;SDS011;10676;50.848;3.272;2022-12-18T14:17:50;58.73;;;33.13;;
21034;SDS011;10676;50.848;3.272;2022-12-18T14:20:22;58.87;;;34.60;;
21034;SDS011;10676;50.848;3.272;2022-12-18T14:22:49;57.47;;;35.00;;
21034;SDS011;10676;50.848;3.272;2022-12-18T14:27:44;69.60;;;43.00;;
21034;SDS011;10676;50.848;3.272;2022-12-18T14:33:01;59.43;;;34.37;;
21034;SDS011;10676;50.848;3.272;2022-12-18T14:35:36;54.43;;;31.87;;
21034;SDS011;10676;50.848;3.272;2022-12-18T14:38:21;53.47;;;31.77;;
21034;SDS011;10676;50.848;3.272;2022-12-18T14:40:57;59.07;;;34.53;;
21034;SDS011;10676;50.848;3.272;2022-12-18T14:43:24;59.40;;;33.10;;
21034;SDS011;10676;50.848;3.272;2022-12-18T14:45:50;54.87;;;32.20;;
21034;SDS011;10676;50.848;3.272;2022-12-18T14:51:01;51.43;;;34.47;;
21034;SDS011;10676;50.848;3.272;2022-12-18T14:53:34;58.93;;;35.13;;
21034;SDS011;10676;50.848;3.272;2022-12-18T14:56:19;55.10;;;32.73;;
21034;SDS011;10676;50.848;3.272;2022-12-18T14:58:51;53.03;;;31.93;;
21034;SDS011;10676;50.848;3.272;2022-12-18T15:01:21;52.73;;;30.30;;
21034;SDS011;10676;50.848;3.272;2022-12-18T15:03:52;58.57;;;31.63;;
21034;SDS011;10676;50.848;3.272;2022-12-18T15:06:30;57.50;;;31.27;;
21034;SDS011;10676;50.848;3.272;2022-12-18T15:09:02;56.77;;;30.47;;
21034;SDS011;10676;50.848;3.272;2022-12-18T15:16:56;55.40;;;32.90;;
21034;SDS011;10676;50.848;3.272;2022-12-18T15:19:46;55.87;;;32.70;;
21034;SDS011;10676;50.848;3.272;2022-12-18T15:24:53;55.93;;;30.87;;
21034;SDS011;10676;50.848;3.272;2022-12-18T15:32:39;58.00;;;32.70;;
21034;SDS011;10676;50.848;3.272;2022-12-18T15:37:34;55.53;;;32.63;;
21034;SDS011;10676;50.848;3.272;2022-12-18T15:39:59;51.37;;;30.60;;
21034;SDS011;10676;50.848;3.272;2022-12-18T15:42:27;53.80;;;31.17;;
21034;SDS011;10676;50.848;3.272;2022-12-18T15:45:12;58.33;;;32.10;;
21034;SDS011;10676;50.848;3.272;2022-12-18T15:47:38;53.20;;;32.60;;
21034;SDS011;10676;50.848;3.272;2022-12-18T15:50:04;56.20;;;31.47;;
21034;SDS011;10676;50.848;3.272;2022-12-18T15:52:36;53.27;;;31.33;;
21034;SDS011;10676;50.848;3.272;2022-12-18T15:55:10;58.83;;;32.87;;
21034;SDS011;10676;50.848;3.272;2022-12-18T15:57:58;52.67;;;31.63;;
21034;SDS011;10676;50.848;3.272;2022-12-18T16:00:24;56.27;;;31.90;;
21034;SDS011;10676;50.848;3.272;2022-12-18T16:02:50;53.93;;;30.70;;
21034;SDS011;10676;50.848;3.272;2022-12-18T16:05:16;55.17;;;32.87;;
21034;SDS011;10676;50.848;3.272;2022-12-18T16:07:43;52.60;;;30.17;;
21034;SDS011;10676;50.848;3.272;2022-12-18T16:10:09;59.80;;;32.40;;
21034;SDS011;10676;50.848;3.272;2022-12-18T16:12:35;55.87;;;33.10;;
21034;SDS011;10676;50.848;3.272;2022-12-18T16:15:02;57.53;;;29.47;;
21034;SDS011;10676;50.848;3.272;2022-12-18T16:17:29;52.13;;;29.57;;
21034;SDS011;10676;50.848;3.272;2022-12-18T16:19:54;54.43;;;30.87;;
21034;SDS011;10676;50.848;3.272;2022-12-18T16:22:21;57.33;;;31.03;;
21034;SDS011;10676;50.848;3.272;2022-12-18T16:24:50;55.53;;;30.13;;
21034;SDS011;10676;50.848;3.272;2022-12-18T16:27:17;53.67;;;29.83;;
21034;SDS011;10676;50.848;3.272;2022-12-18T16:29:43;58.50;;;29.17;;
21034;SDS011;10676;50.848;3.272;2022-12-18T16:32:11;52.13;;;28.87;;
21034;SDS011;10676;50.848;3.272;2022-12-18T16:34:39;55.83;;;32.60;;
21034;SDS011;10676;50.848;3.272;2022-12-18T16:37:07;70.10;;;43.50;;
21034;SDS011;10676;50.848;3.272;2022-12-18T16:39:34;74.93;;;39.30;;
21034;SDS011;10676;50.848;3.272;2022-12-18T16:42:02;102.57;;;63.97;;
21034;SDS011;10676;50.848;3.272;2022-12-18T16:44:29;72.00;;;40.53;;
21034;SDS011;10676;50.848;3.272;2022-12-18T16:46:55;65.03;;;33.87;;
21034;SDS011;10676;50.848;3.272;2022-12-18T16:49:26;55.20;;;28.23;;
21034;SDS011;10676;50.848;3.272;2022-12-18T16:51:52;73.20;;;37.63;;